Terminal Aerodrome Forecast
Issued by NWS Cleveland, OH

Home | Current Version | Previous Version | Text Only | Print | Product List | Glossary On
Versions: 1 2 3 4 5 6 7 8 9 10 11 12 13 14 15 16 17
000
FTUS41 KCLE 240500
TAFYNG
TAF
KYNG 240524Z 2406/2506 28004KT P6SM BKN040
     FM240900 27003KT P6SM SCT040
     FM241600 30012KT P6SM SCT050 BKN250
     FM250200 02003KT P6SM BKN200=

USA.gov is the U.S. government's official web portal to all federal, state and local government web resources and services.